Time;durP1;ratioP1;P1;durP2;ratioP2;P2;SDS_P1;SDS_P2;PMS_P1;PMS_P2;Temp;Humidity;BMP_temperature;BMP_pressure;BME280_temperature;BME280_humidity;BME280_pressure;Samples;Min_cycle;Max_cycle;Signal;HPM_P1;HPM_P2
2023/10/10 00:04:12;;;;;;;;;;;14.10;99.90;;;;;;6746081;88;20076;-80
2023/10/10 00:14:18;;;;;;;;;;;14.10;99.90;;;;;;6752600;88;20452;-80
2023/10/10 00:24:30;;;;;;;;;;;13.80;99.90;;;;;;6751701;88;20075;-80
2023/10/10 00:34:33;;;;;;;;;;;13.80;99.90;;;;;;6758653;88;20049;-81
2023/10/10 00:44:37;;;;;;;;;;;13.60;99.90;;;;;;6756548;88;20050;-80
2023/10/10 00:54:43;;;;;;;;;;;13.50;99.90;;;;;;6758276;88;20106;-79
2023/10/10 01:14:55;;;;;;;;;;;13.60;99.90;;;;;;6750620;88;20075;-80
2023/10/10 01:24:55;;;;;;;;;;;13.40;99.90;;;;;;6751143;88;20055;-80
2023/10/10 01:34:56;;;;;;;;;;;13.30;99.90;;;;;;6749604;88;20083;-80
2023/10/10 01:45:07;;;;;;;;;;;13.10;99.90;;;;;;6761211;88;20069;-79
2023/10/10 01:55:10;;;;;;;;;;;13.00;99.90;;;;;;6758327;88;20054;-80
2023/10/10 02:05:11;;;;;;;;;;;13.00;99.90;;;;;;6749154;88;20079;-81
2023/10/10 02:15:13;;;;;;;;;;;13.00;99.90;;;;;;6750558;88;20058;-80
2023/10/10 02:35:27;;;;;;;;;;;12.90;99.90;;;;;;6764662;88;20076;-80
2023/10/10 02:45:28;;;;;;;;;;;12.80;99.90;;;;;;6767066;88;20069;-79
2023/10/10 02:55:35;;;;;;;;;;;12.80;99.90;;;;;;6763570;88;20061;-80
2023/10/10 03:05:39;;;;;;;;;;;12.90;99.90;;;;;;6754328;88;20053;-80
2023/10/10 03:15:51;;;;;;;;;;;13.00;99.90;;;;;;6764111;88;20078;-80
2023/10/10 03:25:54;;;;;;;;;;;13.00;99.90;;;;;;6773003;88;20033;-79
2023/10/10 03:36:13;;;;;;;;;;;12.90;99.90;;;;;;6746687;88;20061;-80
2023/10/10 05:29:49;;;;;;;;;;;12.70;99.90;;;;;;6733211;88;20067;-82
2023/10/10 05:39:56;;;;;;;;;;;12.70;99.90;;;;;;6733067;88;20100;-81
2023/10/10 05:49:57;;;;;;;;;;;12.90;99.90;;;;;;6734260;88;20176;-82
2023/10/10 05:59:58;;;;;;;;;;;12.80;99.90;;;;;;6746930;88;20030;-81
2023/10/10 06:09:59;;;;;;;;;;;12.70;99.90;;;;;;6750501;88;20020;-80
2023/10/10 06:20:06;;;;;;;;;;;12.90;99.90;;;;;;6758282;88;20033;-80
2023/10/10 06:30:17;;;;;;;;;;;12.90;99.90;;;;;;6750601;88;20110;-80
2023/10/10 06:40:24;;;;;;;;;;;13.10;99.90;;;;;;6746626;88;20101;-81
2023/10/10 06:50:31;;;;;;;;;;;13.20;99.90;;;;;;6748235;88;20055;-80
2023/10/10 07:10:33;;;;;;;;;;;13.60;99.90;;;;;;6749494;88;20617;-80
2023/10/10 07:30:53;;;;;;;;;;;14.20;99.90;;;;;;6749885;88;20058;-80
2023/10/10 07:40:54;;;;;;;;;;;14.80;99.90;;;;;;6749114;88;20647;-81
2023/10/10 07:51:17;;;;;;;;;;;16.70;99.90;;;;;;6749117;88;20185;-81
2023/10/10 08:01:17;;;;;;;;;;;16.80;99.90;;;;;;6749494;88;20048;-80
2023/10/10 08:11:35;;;;;;;;;;;17.20;99.90;;;;;;6750525;88;20094;-81
2023/10/10 08:21:49;;;;;;;;;;;16.70;99.90;;;;;;6750348;88;20012;-81
2023/10/10 08:31:51;;;;;;;;;;;16.90;99.90;;;;;;6749905;88;20124;-81
2023/10/10 08:41:52;;;;;;;;;;;17.50;99.90;;;;;;6750300;88;20064;-82
2023/10/10 08:51:54;;;;;;;;;;;17.90;99.90;;;;;;6749965;88;20034;-80
2023/10/10 09:02:07;;;;;;;;;;;18.70;99.90;;;;;;6750227;88;20110;-79
2023/10/10 09:12:20;;;;;;;;;;;19.20;99.90;;;;;;6748444;88;20034;-81
2023/10/10 09:22:28;;;;;;;;;;;20.00;99.90;;;;;;6738238;88;20613;-79
2023/10/10 09:32:36;;;;;;;;;;;20.30;99.90;;;;;;6731140;88;20055;-80
2023/10/10 09:53:20;;;;;;;;;;;21.10;99.90;;;;;;6736942;88;20098;-81
2023/10/10 10:13:37;;;;;;;;;;;21.20;99.90;;;;;;6712448;88;20064;-80
2023/10/10 10:23:45;;;;;;;;;;;21.60;99.90;;;;;;6734384;88;20097;-81
2023/10/10 10:34:31;;;;;;;;;;;21.80;99.90;;;;;;6730790;88;20047;-80
2023/10/10 10:44:44;;;;;;;;;;;22.50;99.90;;;;;;6685331;88;20110;-80
2023/10/10 10:54:50;;;;;;;;;;;22.60;99.90;;;;;;6709067;88;20078;-80
2023/10/10 11:04:50;;;;;;;;;;;23.10;99.90;;;;;;6718390;88;20107;-82
2023/10/10 11:14:53;;;;;;;;;;;23.40;99.90;;;;;;6719126;88;20199;-81
2023/10/10 11:24:57;;;;;;;;;;;24.00;99.90;;;;;;6711024;88;20063;-81
2023/10/10 11:35:17;;;;;;;;;;;24.90;99.90;;;;;;6708005;88;20758;-82
2023/10/10 11:45:19;;;;;;;;;;;25.90;99.90;;;;;;6712454;88;20065;-82
2023/10/10 11:55:26;;;;;;;;;;;26.30;99.90;;;;;;6727141;88;20140;-83
2023/10/10 12:15:31;;;;;;;;;;;27.80;99.50;;;;;;6731033;88;20104;-83
2023/10/10 12:25:31;;;;;;;;;;;27.60;99.20;;;;;;6734137;88;20151;-83
2023/10/10 12:35:32;;;;;;;;;;;27.10;99.90;;;;;;6721528;88;20111;-83
2023/10/10 12:45:33;;;;;;;;;;;28.40;98.80;;;;;;6713358;88;20558;-83
2023/10/10 12:55:37;;;;;;;;;;;29.90;97.50;;;;;;6708419;88;20080;-84
2023/10/10 13:05:38;;;;;;;;;;;30.10;96.10;;;;;;6717962;88;20532;-84
2023/10/10 13:15:49;;;;;;;;;;;29.50;96.50;;;;;;6714968;88;20101;-83
2023/10/10 13:25:49;;;;;;;;;;;29.00;97.20;;;;;;6734575;88;20062;-83
2023/10/10 13:35:50;;;;;;;;;;;28.60;97.10;;;;;;6733919;88;20288;-83
2023/10/10 13:45:51;;;;;;;;;;;29.50;96.30;;;;;;6733539;88;20568;-84
2023/10/10 13:55:51;;;;;;;;;;;29.40;96.00;;;;;;6742111;88;20065;-84
2023/10/10 14:06:00;;;;;;;;;;;29.40;96.30;;;;;;6747025;88;20089;-84
2023/10/10 14:16:03;;;;;;;;;;;29.90;95.70;;;;;;6728246;88;20043;-85
2023/10/10 14:26:14;;;;;;;;;;;29.30;95.70;;;;;;6725081;88;20045;-85
2023/10/10 14:36:14;;;;;;;;;;;29.60;96.00;;;;;;6733428;88;21193;-84
2023/10/10 14:46:21;;;;;;;;;;;28.50;96.30;;;;;;6751497;88;20042;-85
2023/10/10 14:56:35;;;;;;;;;;;28.10;96.90;;;;;;6747903;88;20057;-84
2023/10/10 15:06:36;;;;;;;;;;;28.10;97.00;;;;;;6751778;88;20067;-83
2023/10/10 15:16:37;;;;;;;;;;;27.70;97.30;;;;;;6747742;88;20038;-84
2023/10/10 15:26:38;;;;;;;;;;;27.60;97.40;;;;;;6751151;88;20059;-83
2023/10/10 15:36:38;;;;;;;;;;;26.90;98.40;;;;;;6751063;88;20058;-83
2023/10/10 15:46:59;;;;;;;;;;;27.20;97.80;;;;;;6731012;77;20586;-83
2023/10/10 15:57:03;;;;;;;;;;;27.10;98.90;;;;;;6725143;88;20039;-83
2023/10/10 16:07:04;;;;;;;;;;;26.90;99.50;;;;;;6727980;88;20055;-82
2023/10/10 16:17:04;;;;;;;;;;;26.00;99.90;;;;;;6730917;88;20058;-81
2023/10/10 16:27:05;;;;;;;;;;;25.10;99.90;;;;;;6726343;88;20096;-82
2023/10/10 16:37:06;;;;;;;;;;;24.10;99.90;;;;;;6730315;88;20059;-82
2023/10/10 16:47:08;;;;;;;;;;;23.50;99.90;;;;;;6729882;88;20063;-81
2023/10/10 16:57:11;;;;;;;;;;;22.80;99.90;;;;;;6725284;88;20048;-81
2023/10/10 17:07:11;;;;;;;;;;;22.80;99.90;;;;;;6724153;88;20102;-81
2023/10/10 17:17:13;;;;;;;;;;;22.60;99.90;;;;;;6723777;88;20075;-81
2023/10/10 17:27:14;;;;;;;;;;;22.30;99.90;;;;;;6721367;88;20601;-80
2023/10/10 17:37:14;;;;;;;;;;;22.30;99.90;;;;;;6726222;88;20050;-81
2023/10/10 17:47:15;;;;;;;;;;;22.10;99.90;;;;;;6728848;88;20080;-79
2023/10/10 17:57:16;;;;;;;;;;;21.80;99.90;;;;;;6721234;88;20052;-79
2023/10/10 18:07:21;;;;;;;;;;;21.70;99.90;;;;;;6724895;88;20059;-79
2023/10/10 18:17:22;;;;;;;;;;;21.70;99.90;;;;;;6724604;88;20112;-79
2023/10/10 18:27:23;;;;;;;;;;;21.50;99.90;;;;;;6725214;88;20539;-78
2023/10/10 18:37:25;;;;;;;;;;;21.40;99.90;;;;;;6727890;88;20116;-78
2023/10/10 18:47:25;;;;;;;;;;;21.30;99.90;;;;;;6726234;88;20134;-79
2023/10/10 18:57:27;;;;;;;;;;;21.30;99.90;;;;;;6708138;88;20110;-79
2023/10/10 19:07:27;;;;;;;;;;;21.10;99.90;;;;;;6717883;88;20032;-81
2023/10/10 19:17:28;;;;;;;;;;;21.10;99.90;;;;;;6713516;88;20070;-81
2023/10/10 19:27:31;;;;;;;;;;;20.40;99.90;;;;;;6714431;88;20172;-81
2023/10/10 19:37:32;;;;;;;;;;;19.90;99.90;;;;;;6708017;88;20076;-81
2023/10/10 19:47:32;;;;;;;;;;;19.80;99.90;;;;;;6720591;88;20164;-80
2023/10/10 19:57:35;;;;;;;;;;;19.70;99.90;;;;;;6711497;88;20585;-81
2023/10/10 20:07:36;;;;;;;;;;;19.60;99.90;;;;;;6711104;88;20077;-81
2023/10/10 20:17:36;;;;;;;;;;;19.50;99.90;;;;;;6713808;88;20610;-81
2023/10/10 20:27:37;;;;;;;;;;;19.40;99.90;;;;;;6712097;88;20064;-79
2023/10/10 20:37:37;;;;;;;;;;;19.30;99.90;;;;;;6715126;88;20048;-79
2023/10/10 20:47:38;;;;;;;;;;;19.20;99.90;;;;;;6727139;88;20100;-81
2023/10/10 20:57:38;;;;;;;;;;;19.20;99.90;;;;;;6722956;88;20928;-82
2023/10/10 21:07:41;;;;;;;;;;;19.10;99.90;;;;;;6718871;88;20028;-79
2023/10/10 21:17:42;;;;;;;;;;;19.30;99.90;;;;;;6716712;88;20113;-80
2023/10/10 21:27:45;;;;;;;;;;;19.50;99.90;;;;;;6715010;88;20057;-80
2023/10/10 21:37:49;;;;;;;;;;;19.60;99.90;;;;;;6715042;88;20048;-79
2023/10/10 21:58:31;;;;;;;;;;;19.50;99.90;;;;;;6755351;88;20539;-81
2023/10/10 22:08:33;;;;;;;;;;;19.50;99.90;;;;;;6754233;88;20046;-81
2023/10/10 22:18:34;;;;;;;;;;;19.50;99.90;;;;;;6757691;88;20173;-81
2023/10/10 22:28:34;;;;;;;;;;;19.80;99.90;;;;;;6761100;88;20255;-82
2023/10/10 22:38:35;;;;;;;;;;;19.70;99.90;;;;;;6755702;88;20059;-82
2023/10/10 22:48:36;;;;;;;;;;;19.70;99.90;;;;;;6756692;88;20065;-82
2023/10/10 22:58:36;;;;;;;;;;;19.60;99.90;;;;;;6753577;88;20831;-82
2023/10/10 23:08:36;;;;;;;;;;;19.60;99.90;;;;;;6761332;88;20075;-83
2023/10/10 23:18:37;;;;;;;;;;;19.10;99.90;;;;;;6747882;88;20050;-83
2023/10/10 23:28:38;;;;;;;;;;;18.70;99.90;;;;;;6753145;88;20058;-81
2023/10/10 23:38:40;;;;;;;;;;;18.50;99.90;;;;;;6727494;88;20174;-82
2023/10/10 23:48:40;;;;;;;;;;;18.60;99.90;;;;;;6741354;88;20616;-81
2023/10/10 23:58:43;;;;;;;;;;;18.70;99.90;;;;;;6752262;88;20109;-82
